< < Back
Terminal Aerodrome Forecast


Current Version              Previous Versions:   1  2  3  4  5  6  7  8  9  

Terminal Aerodrome Forecast

907
FTUS42 KTAE 201100
TAFABY
TAF
KABY 201128Z 2012/2112 00000KT 5SM BR SKC
     FM201400 13004KT P6SM FEW030
     FM202000 25004KT P6SM FEW040 FEW250=



Latest METAR

542
SAUS70 KWBC 211500 RRB
MTRABY
METAR KABY 211453Z 03004KT 10SM CLR 23/13 A3005 RMK AO2 SLP174 T02280128
50010


USA.gov is the U.S. government's official web portal to all federal, state and local government web resources and services.